This is the latest recevied weather packets stored in our database for station/object N1ORT. If no packets are shown the sender has not sent any weather packets the latest 10 day(s).
| Time | Temp. | Humidity | Pressure | Rain* | Wind** | Luminosity | Snow |
|---|---|---|---|---|---|---|---|
| 1777724931 | 6.11° C | 96% | 1010.5 hPa | 0.51 mm | - | 91 W/m² | - |
| 1777724626 | 6.11° C | 96% | 1010.9 hPa | 0.51 mm | - | 51 W/m² | - |
| 1777724325 | 6.11° C | 95% | 1010.7 hPa | 0.51 mm | - | 55 W/m² | - |
| 1777724022 | 6.11° C | 95% | 1011 hPa | 2.29 mm | - | 59 W/m² | - |
| 1777723719 | 5.56° C | 94% | 1011.2 hPa | 3.05 mm | - | 45 W/m² | - |
| 1777723415 | 5.56° C | 94% | 1011.1 hPa | 2.29 mm | - | 43 W/m² | - |
| 1777723113 | 6.11° C | 93% | 1010.9 hPa | 3.05 mm | - | 27 W/m² | - |
| 1777722810 | 6.11° C | 91% | 1011 hPa | 3.05 mm | - | 24 W/m² | - |
| 1777722506 | 6.67° C | 90% | 1010.9 hPa | 1.78 mm | - | 25 W/m² | - |
| 1777722203 | 6.67° C | 88% | 1010.6 hPa | 0.51 mm | - | 20 W/m² | - |
| 1777721900 | 6.67° C | 87% | 1010 hPa | 0 mm | - | 16 W/m² | - |
| 1777721598 | 6.67° C | 88% | 1009.9 hPa | 0 mm | - | 35 W/m² | - |
| 1777721296 | 6.67° C | 90% | 1009.9 hPa | 0 mm | - | 38 W/m² | - |
| 1777720993 | 6.67° C | 91% | 1009.8 hPa | 0 mm | - | 41 W/m² | - |
| 1777720690 | 6.67° C | 90% | 1009.7 hPa | 0 mm | - | 78 W/m² | - |
| 1777720388 | 6.11° C | 91% | 1009.8 hPa | 0 mm | - | 69 W/m² | - |
| 1777720085 | 6.11° C | 93% | 1009.8 hPa | 0 mm | - | 60 W/m² | - |
| 1777719783 | 6.11° C | 93% | 1009.7 hPa | 0 mm | - | 37 W/m² | - |
| 1777719481 | 6.11° C | 93% | 1009.6 hPa | 0 mm | - | 50 W/m² | - |
| 1777719176 | 5.56° C | 93% | 1009.9 hPa | 0 mm | - | 32 W/m² | - |
| 1777718875 | 6.11° C | 93% | 1009.8 hPa | 0 mm | - | 36 W/m² | - |
| 1777718572 | 5.56° C | 91% | 1009.6 hPa | 0 mm | - | 29 W/m² | - |
| 1777718269 | 5.56° C | 90% | 1009.7 hPa | 0 mm | - | 20 W/m² | - |
| 1777717966 | 5.56° C | 90% | 1009.8 hPa | 0 mm | - | 13 W/m² | - |
| 1777717663 | 6.11° C | 89% | 1010 hPa | 1.27 mm | - | 20 W/m² | - |
* Rain latest hour (hover to see other rain measurements)
** Current wind speed in m/s (hover to see current wind gust speed)